sensor_id;sensor_type;location;lat;lon;timestamp;pressure;altitude;pressure_sealevel;temperature;humidity
50040;BME280;44598;51.606;5.912;2023-02-28T00:02:10;102700;;;-0.5;88.1
50040;BME280;44598;51.606;5.912;2023-02-28T00:15:30;102700;;;-0.5;88.2
50040;BME280;44598;51.606;5.912;2023-02-28T00:28:50;102700;;;-0.6;88.1
50040;BME280;44598;51.606;5.912;2023-02-28T00:42:10;102700;;;-0.6;88.1
50040;BME280;44598;51.606;5.912;2023-02-28T00:55:29;102700;;;-0.6;88.2
50040;BME280;44598;51.606;5.912;2023-02-28T01:08:49;102700;;;-0.6;88.5
50040;BME280;44598;51.606;5.912;2023-02-28T01:22:09;102700;;;-0.6;87.9
50040;BME280;44598;51.606;5.912;2023-02-28T01:35:29;102700;;;-0.6;87.9
50040;BME280;44598;51.606;5.912;2023-02-28T01:48:49;102700;;;-0.5;88.4
50040;BME280;44598;51.606;5.912;2023-02-28T02:02:09;102700;;;-0.5;88.2
50040;BME280;44598;51.606;5.912;2023-02-28T02:15:28;102700;;;-0.4;87.4
50040;BME280;44598;51.606;5.912;2023-02-28T02:28:48;102700;;;-0.2;87.0
50040;BME280;44598;51.606;5.912;2023-02-28T02:42:08;102700;;;-0.1;86.3
50040;BME280;44598;51.606;5.912;2023-02-28T03:08:48;102700;;;0.1;86.2
50040;BME280;44598;51.606;5.912;2023-02-28T03:22:07;102700;;;0.2;85.4
50040;BME280;44598;51.606;5.912;2023-02-28T03:35:27;102700;;;0.4;85.1
50040;BME280;44598;51.606;5.912;2023-02-28T03:48:47;102700;;;0.6;84.9
50040;BME280;44598;51.606;5.912;2023-02-28T04:02:07;102700;;;0.8;84.1
50040;BME280;44598;51.606;5.912;2023-02-28T04:15:26;102700;;;1.1;82.8
50040;BME280;44598;51.606;5.912;2023-02-28T04:28:46;102700;;;1.3;82.6
50040;BME280;44598;51.606;5.912;2023-02-28T04:42:06;102700;;;1.4;82.4
50040;BME280;44598;51.606;5.912;2023-02-28T04:55:26;102700;;;1.6;82.0
50040;BME280;44598;51.606;5.912;2023-02-28T05:22:05;102700;;;1.7;83.0
50040;BME280;44598;51.606;5.912;2023-02-28T05:48:45;102700;;;1.6;81.9
50040;BME280;44598;51.606;5.912;2023-02-28T06:02:05;102700;;;1.6;80.9
50040;BME280;44598;51.606;5.912;2023-02-28T06:15:25;102800;;;1.6;80.4
50040;BME280;44598;51.606;5.912;2023-02-28T06:28:44;102800;;;1.6;80.7
50040;BME280;44598;51.606;5.912;2023-02-28T06:42:04;102800;;;1.5;80.4
50040;BME280;44598;51.606;5.912;2023-02-28T06:55:24;102800;;;1.3;81.3
50040;BME280;44598;51.606;5.912;2023-02-28T07:08:44;102800;;;1.1;81.4
50040;BME280;44598;51.606;5.912;2023-02-28T07:22:04;102800;;;0.9;81.1
50040;BME280;44598;51.606;5.912;2023-02-28T07:35:23;102800;;;0.8;80.5
50040;BME280;44598;51.606;5.912;2023-02-28T07:48:43;102800;;;0.8;79.6
50040;BME280;44598;51.606;5.912;2023-02-28T08:02:03;102800;;;0.9;79.3
50040;BME280;44598;51.606;5.912;2023-02-28T08:15:23;102800;;;1.1;78.0
50040;BME280;44598;51.606;5.912;2023-02-28T08:28:43;102800;;;1.4;73.4
50040;BME280;44598;51.606;5.912;2023-02-28T08:55:22;102800;;;2.8;64.9
50040;BME280;44598;51.606;5.912;2023-02-28T09:08:42;102800;;;3.6;60.9
50040;BME280;44598;51.606;5.912;2023-02-28T09:22:02;102800;;;4.4;56.3
50040;BME280;44598;51.606;5.912;2023-02-28T09:35:22;102800;;;5.1;53.3
50040;BME280;44598;51.606;5.912;2023-02-28T09:48:42;102800;;;5.7;50.9
50040;BME280;44598;51.606;5.912;2023-02-28T10:02:01;102800;;;6.2;48.7
50040;BME280;44598;51.606;5.912;2023-02-28T10:15:21;102800;;;6.6;46.9
50040;BME280;44598;51.606;5.912;2023-02-28T10:42:01;102800;;;7.1;45.6
50040;BME280;44598;51.606;5.912;2023-02-28T10:55:21;102800;;;7.5;45.8
50040;BME280;44598;51.606;5.912;2023-02-28T11:08:41;102800;;;7.6;44.9
50040;BME280;44598;51.606;5.912;2023-02-28T11:22:00;102800;;;7.7;44.4
50040;BME280;44598;51.606;5.912;2023-02-28T11:35:20;102800;;;7.9;44.5
50040;BME280;44598;51.606;5.912;2023-02-28T11:48:40;102800;;;8.2;43.8
50040;BME280;44598;51.606;5.912;2023-02-28T12:02:00;102800;;;8.6;43.7
50040;BME280;44598;51.606;5.912;2023-02-28T12:15:20;102800;;;8.7;45.2
50040;BME280;44598;51.606;5.912;2023-02-28T12:28:39;102700;;;8.7;45.4
50040;BME280;44598;51.606;5.912;2023-02-28T12:41:59;102700;;;8.6;46.6
50040;BME280;44598;51.606;5.912;2023-02-28T12:55:19;102700;;;8.3;46.2
50040;BME280;44598;51.606;5.912;2023-02-28T13:08:39;102700;;;8.0;47.1
50040;BME280;44598;51.606;5.912;2023-02-28T13:21:59;102700;;;7.8;47.1
50040;BME280;44598;51.606;5.912;2023-02-28T13:35:19;102700;;;7.7;47.1
50040;BME280;44598;51.606;5.912;2023-02-28T13:48:38;102700;;;7.7;48.6
50040;BME280;44598;51.606;5.912;2023-02-28T14:01:58;102700;;;7.7;48.3
50040;BME280;44598;51.606;5.912;2023-02-28T14:15:18;102700;;;7.7;47.3
50040;BME280;44598;51.606;5.912;2023-02-28T14:28:38;102600;;;7.8;47.0
50040;BME280;44598;51.606;5.912;2023-02-28T14:41:58;102600;;;8.1;44.6
50040;BME280;44598;51.606;5.912;2023-02-28T14:55:17;102600;;;8.6;41.8
50040;BME280;44598;51.606;5.912;2023-02-28T15:08:37;102600;;;9.4;40.5
50040;BME280;44598;51.606;5.912;2023-02-28T15:21:57;102600;;;10.1;41.8
50040;BME280;44598;51.606;5.912;2023-02-28T15:35:17;102600;;;10.5;40.4
50040;BME280;44598;51.606;5.912;2023-02-28T15:48:37;102600;;;10.8;40.5
50040;BME280;44598;51.606;5.912;2023-02-28T16:01:56;102600;;;10.9;42.3
50040;BME280;44598;51.606;5.912;2023-02-28T16:15:16;102600;;;10.6;44.6
50040;BME280;44598;51.606;5.912;2023-02-28T16:28:36;102600;;;10.1;45.3
50040;BME280;44598;51.606;5.912;2023-02-28T16:41:56;102600;;;9.6;46.1
50040;BME280;44598;51.606;5.912;2023-02-28T16:55:16;102600;;;9.3;47.9
50040;BME280;44598;51.606;5.912;2023-02-28T17:08:35;102600;;;8.9;50.6
50040;BME280;44598;51.606;5.912;2023-02-28T17:21:55;102600;;;8.2;55.9
50040;BME280;44598;51.606;5.912;2023-02-28T17:35:15;102600;;;7.2;58.4
50040;BME280;44598;51.606;5.912;2023-02-28T17:48:35;102700;;;6.2;60.5
50040;BME280;44598;51.606;5.912;2023-02-28T18:01:55;102700;;;5.4;63.2
50040;BME280;44598;51.606;5.912;2023-02-28T18:15:14;102700;;;4.6;65.0
50040;BME280;44598;51.606;5.912;2023-02-28T18:28:34;102700;;;4.0;66.1
50040;BME280;44598;51.606;5.912;2023-02-28T18:41:54;102700;;;3.5;67.5
50040;BME280;44598;51.606;5.912;2023-02-28T18:55:14;102700;;;3.1;68.4
50040;BME280;44598;51.606;5.912;2023-02-28T19:08:34;102700;;;2.8;69.2
50040;BME280;44598;51.606;5.912;2023-02-28T19:21:54;102700;;;2.5;69.7
50040;BME280;44598;51.606;5.912;2023-02-28T19:35:13;102700;;;2.3;70.9
50040;BME280;44598;51.606;5.912;2023-02-28T19:48:33;102700;;;2.0;72.3
50040;BME280;44598;51.606;5.912;2023-02-28T20:01:53;102700;;;1.7;73.6
50040;BME280;44598;51.606;5.912;2023-02-28T20:15:13;102700;;;1.5;73.8
50040;BME280;44598;51.606;5.912;2023-02-28T20:28:33;102700;;;1.3;74.8
50040;BME280;44598;51.606;5.912;2023-02-28T20:41:52;102700;;;1.1;75.4
50040;BME280;44598;51.606;5.912;2023-02-28T20:55:12;102700;;;0.9;75.7
50040;BME280;44598;51.606;5.912;2023-02-28T21:08:32;102700;;;0.7;76.1
50040;BME280;44598;51.606;5.912;2023-02-28T21:21:52;102700;;;0.6;76.1
50040;BME280;44598;51.606;5.912;2023-02-28T21:48:31;102700;;;0.6;76.0
50040;BME280;44598;51.606;5.912;2023-02-28T22:01:51;102700;;;0.6;75.8
50040;BME280;44598;51.606;5.912;2023-02-28T22:15:11;102700;;;0.5;75.7
50040;BME280;44598;51.606;5.912;2023-02-28T22:28:31;102700;;;0.5;76.1
50040;BME280;44598;51.606;5.912;2023-02-28T22:41:51;102700;;;0.5;76.0
50040;BME280;44598;51.606;5.912;2023-02-28T22:55:11;102700;;;0.5;76.5
50040;BME280;44598;51.606;5.912;2023-02-28T23:08:30;102700;;;0.4;76.8
50040;BME280;44598;51.606;5.912;2023-02-28T23:21:50;102700;;;0.4;77.0
50040;BME280;44598;51.606;5.912;2023-02-28T23:35:10;102700;;;0.3;77.2
50040;BME280;44598;51.606;5.912;2023-02-28T23:48:30;102700;;;0.3;78.5
